Time;durP1;ratioP1;P1;durP2;ratioP2;P2;SDS_P1;SDS_P2;PMS_P1;PMS_P2;Temp;Humidity;BMP_temperature;BMP_pressure;BME280_temperature;BME280_humidity;BME280_pressure;Samples;Min_cycle;Max_cycle;Signal;HPM_P1;HPM_P2
2021/03/15 00:02:07;;;;;;;6.73;2.67;;;3.10;99.90;;;;;;4983312;28;20134;-88
2021/03/15 00:04:32;;;;;;;5.73;2.63;;;3.10;99.90;;;;;;4983480;28;20054;-87
2021/03/15 00:06:58;;;;;;;5.97;2.93;;;3.10;99.90;;;;;;4985365;28;20022;-87
2021/03/15 00:09:24;;;;;;;7.80;2.60;;;3.00;99.90;;;;;;4991026;28;20041;-87
2021/03/15 00:11:49;;;;;;;6.27;2.40;;;3.00;99.90;;;;;;4976639;28;20110;-88
2021/03/15 00:14:15;;;;;;;7.53;2.73;;;3.00;99.90;;;;;;4977122;28;20034;-88
2021/03/15 00:16:41;;;;;;;6.10;2.67;;;2.90;99.90;;;;;;4979332;28;20032;-88
2021/03/15 00:19:06;;;;;;;6.60;2.17;;;2.90;99.90;;;;;;4996230;28;20022;-88
2021/03/15 00:21:32;;;;;;;5.87;2.97;;;2.80;99.90;;;;;;4980213;28;20368;-88
2021/03/15 00:23:57;;;;;;;6.37;2.53;;;2.80;99.90;;;;;;4987426;28;20031;-88
2021/03/15 00:26:23;;;;;;;5.20;2.67;;;2.80;99.90;;;;;;4990992;28;20089;-89
2021/03/15 00:28:49;;;;;;;6.07;2.90;;;2.70;99.90;;;;;;4979454;28;20061;-87
2021/03/15 00:31:14;;;;;;;6.23;3.13;;;2.80;99.90;;;;;;4976294;28;20431;-88
2021/03/15 00:33:40;;;;;;;5.93;2.60;;;2.70;99.90;;;;;;4984603;28;20026;-88
2021/03/15 00:36:06;;;;;;;5.13;2.60;;;2.70;99.90;;;;;;4994089;28;20033;-88
2021/03/15 00:38:32;;;;;;;8.17;3.00;;;2.60;99.90;;;;;;5009298;28;20018;-88
2021/03/15 00:40:57;;;;;;;7.83;3.10;;;2.60;99.90;;;;;;4987237;28;20070;-88
2021/03/15 00:43:23;;;;;;;6.30;2.97;;;2.60;99.90;;;;;;4977952;28;20027;-87
2021/03/15 00:45:49;;;;;;;5.67;2.93;;;2.60;99.90;;;;;;4979264;28;20072;-87
2021/03/15 00:48:14;;;;;;;7.50;3.40;;;2.60;99.90;;;;;;4994658;28;20030;-86
2021/03/15 00:50:42;;;;;;;8.23;2.97;;;2.50;99.90;;;;;;5003611;28;20042;-87
2021/03/15 00:53:08;;;;;;;7.20;3.43;;;2.50;99.90;;;;;;4994042;28;20459;-87
2021/03/15 00:55:34;;;;;;;7.53;3.83;;;2.40;99.90;;;;;;4996385;28;20042;-87
2021/03/15 00:58:00;;;;;;;7.47;3.60;;;2.30;99.90;;;;;;4995990;28;20030;-87
2021/03/15 01:00:30;;;;;;;5.80;3.43;;;2.30;99.90;;;;;;4995129;28;20086;-88
2021/03/15 01:02:56;;;;;;;9.13;3.50;;;2.30;99.90;;;;;;4974715;28;20040;-87
2021/03/15 01:05:25;;;;;;;7.33;3.27;;;2.20;99.90;;;;;;4972832;28;20034;-86
2021/03/15 01:07:50;;;;;;;5.97;3.10;;;2.20;99.90;;;;;;4982140;28;20026;-87
2021/03/15 01:10:21;;;;;;;5.93;3.20;;;2.20;99.90;;;;;;4985079;28;20026;-87
2021/03/15 01:12:47;;;;;;;7.70;3.17;;;2.30;99.90;;;;;;4991118;28;20022;-88
2021/03/15 01:15:13;;;;;;;10.07;4.40;;;2.10;99.90;;;;;;4987492;28;20061;-88
2021/03/15 01:17:39;;;;;;;6.27;3.90;;;2.10;99.90;;;;;;4983615;28;20022;-88
2021/03/15 01:20:06;;;;;;;7.40;3.83;;;2.10;99.90;;;;;;4985821;28;20044;-88
2021/03/15 01:22:32;;;;;;;8.90;3.97;;;2.00;99.90;;;;;;4975717;28;20742;-88
2021/03/15 01:24:58;;;;;;;8.27;4.03;;;2.00;99.90;;;;;;4995364;28;20050;-86
2021/03/15 01:27:23;;;;;;;7.43;3.73;;;2.00;99.90;;;;;;5003865;28;20106;-88
2021/03/15 01:29:49;;;;;;;7.83;4.00;;;1.90;99.90;;;;;;4986000;28;20022;-87
2021/03/15 01:32:15;;;;;;;7.83;3.97;;;1.90;99.90;;;;;;4977429;28;20033;-88
2021/03/15 01:34:40;;;;;;;8.13;4.40;;;1.90;99.90;;;;;;4977499;28;20125;-87
2021/03/15 01:37:06;;;;;;;7.37;4.10;;;1.90;99.90;;;;;;4984387;28;20026;-88
2021/03/15 01:39:32;;;;;;;9.13;4.27;;;1.80;99.90;;;;;;4976487;28;20083;-88
2021/03/15 01:41:59;;;;;;;8.43;3.63;;;1.80;99.90;;;;;;4995448;28;20034;-87
2021/03/15 01:44:25;;;;;;;7.43;4.00;;;1.80;99.90;;;;;;4992972;28;20184;-87
2021/03/15 01:46:51;;;;;;;9.50;4.10;;;1.70;99.90;;;;;;4986171;28;20057;-88
2021/03/15 01:49:17;;;;;;;10.33;4.13;;;1.70;99.90;;;;;;4988361;28;20159;-88
2021/03/15 01:51:43;;;;;;;7.30;3.87;;;1.70;99.90;;;;;;4986092;28;20041;-87
2021/03/15 01:54:09;;;;;;;7.93;4.53;;;1.70;99.90;;;;;;4983548;28;20018;-88
2021/03/15 01:56:36;;;;;;;9.73;3.80;;;1.70;99.90;;;;;;4997182;28;20468;-87
2021/03/15 01:59:03;;;;;;;7.87;3.70;;;1.60;99.90;;;;;;5000995;28;20479;-87
2021/03/15 02:01:29;;;;;;;9.47;4.23;;;1.60;99.90;;;;;;4985517;28;20087;-87
2021/03/15 02:03:54;;;;;;;10.87;4.60;;;1.60;99.90;;;;;;4981593;28;20741;-87
2021/03/15 02:06:20;;;;;;;13.70;4.63;;;1.70;99.90;;;;;;4977315;28;20030;-87
2021/03/15 02:08:46;;;;;;;12.50;3.67;;;1.70;99.90;;;;;;4979095;28;20407;-87
2021/03/15 02:11:22;;;;;;;8.53;4.30;;;1.70;99.90;;;;;;4977062;28;20041;-88
2021/03/15 02:14:19;;;;;;;7.80;4.23;;;1.70;99.90;;;;;;4985616;28;20129;-87
2021/03/15 02:16:54;;;;;;;9.50;4.23;;;1.70;99.90;;;;;;4954311;28;20034;-88
2021/03/15 02:19:41;;;;;;;6.97;3.90;;;1.70;99.90;;;;;;4995232;28;20033;-87
2021/03/15 02:22:19;;;;;;;7.73;3.93;;;1.60;99.90;;;;;;4974241;28;20042;-88
2021/03/15 02:25:09;;;;;;;7.93;4.33;;;1.60;99.90;;;;;;4995044;28;20099;-88
2021/03/15 02:27:56;;;;;;;9.40;4.50;;;1.50;99.90;;;;;;4993581;28;20037;-88
2021/03/15 02:30:42;;;;;;;8.97;4.57;;;1.50;99.90;;;;;;4994626;28;20512;-87
2021/03/15 02:33:45;;;;;;;8.27;3.97;;;1.50;99.90;;;;;;4970541;28;20563;-87
2021/03/15 02:36:12;;;;;;;10.73;4.45;;;1.60;99.90;;;;;;4975693;28;20546;-88
2021/03/15 02:38:40;;;;;;;10.97;4.17;;;1.60;99.90;;;;;;4986817;28;20032;-88
2021/03/15 02:41:08;;;;;;;11.40;4.63;;;1.60;99.90;;;;;;4988687;28;20097;-88
2021/03/15 02:43:48;;;;;;;11.90;4.30;;;1.60;99.90;;;;;;4996703;28;20022;-86
2021/03/15 02:46:18;;;;;;;9.30;4.30;;;1.60;99.90;;;;;;4986368;28;20352;-86
2021/03/15 02:48:46;;;;;;;9.97;4.03;;;1.70;99.90;;;;;;4975147;28;20056;-87
2021/03/15 02:51:17;;;;;;;10.63;4.47;;;1.70;99.90;;;;;;4993307;28;20049;-88
2021/03/15 02:53:44;;;;;;;10.40;4.80;;;1.70;99.90;;;;;;4977761;28;20022;-88
2021/03/15 02:56:18;;;;;;;7.10;3.93;;;1.70;99.90;;;;;;4975683;28;20019;-88
2021/03/15 02:58:45;;;;;;;8.20;4.03;;;1.70;99.90;;;;;;4983804;28;20029;-88
2021/03/15 03:01:15;;;;;;;7.73;3.73;;;1.70;99.90;;;;;;4989694;28;20030;-89
2021/03/15 03:03:41;;;;;;;8.07;3.53;;;1.70;99.90;;;;;;4980700;28;20022;-88
2021/03/15 03:06:11;;;;;;;8.50;4.23;;;1.70;99.90;;;;;;4975923;28;20168;-88
2021/03/15 03:08:38;;;;;;;10.63;3.73;;;1.80;99.90;;;;;;4994224;28;20018;-88
2021/03/15 03:11:04;;;;;;;6.50;3.03;;;1.80;99.90;;;;;;4991380;28;20034;-88
2021/03/15 03:13:32;;;;;;;10.53;4.87;;;1.80;99.90;;;;;;4988062;28;20463;-88
2021/03/15 03:15:58;;;;;;;10.33;3.80;;;1.80;99.90;;;;;;4973979;28;20024;-88
2021/03/15 03:18:25;;;;;;;8.43;3.73;;;1.80;99.90;;;;;;4973255;28;20023;-88
2021/03/15 03:20:57;;;;;;;9.60;4.07;;;1.80;99.90;;;;;;4999988;28;20062;-87
2021/03/15 03:23:26;;;;;;;9.55;3.97;;;1.80;99.90;;;;;;4995109;28;20466;-89
2021/03/15 03:25:56;;;;;;;11.43;4.23;;;1.80;99.90;;;;;;4977032;28;20041;-88
2021/03/15 03:28:24;;;;;;;9.47;4.10;;;1.70;99.90;;;;;;4984191;28;20109;-88
2021/03/15 03:30:50;;;;;;;9.80;4.27;;;1.70;99.90;;;;;;4997754;28;20033;-87
2021/03/15 03:33:17;;;;;;;13.00;3.80;;;1.60;99.90;;;;;;4977299;28;20077;-88
2021/03/15 03:35:43;;;;;;;13.87;5.00;;;1.60;99.90;;;;;;4977847;28;20047;-88
2021/03/15 03:38:10;;;;;;;8.93;3.73;;;1.60;99.90;;;;;;4977534;28;20018;-88
2021/03/15 03:40:36;;;;;;;7.77;3.97;;;1.60;99.90;;;;;;4991076;28;20026;-87
2021/03/15 03:43:02;;;;;;;7.40;3.83;;;1.60;99.90;;;;;;4977164;28;20373;-87
2021/03/15 03:45:28;;;;;;;8.77;3.30;;;1.70;99.90;;;;;;4977643;28;20023;-88
2021/03/15 03:47:53;;;;;;;9.70;3.50;;;1.80;99.90;;;;;;4981008;28;20105;-89
2021/03/15 03:50:26;;;;;;;9.00;3.30;;;1.80;99.90;;;;;;4983088;28;20565;-88
2021/03/15 03:53:13;;;;;;;7.80;3.37;;;1.90;99.90;;;;;;4969725;28;20042;-87
2021/03/15 03:56:11;;;;;;;7.57;3.47;;;1.90;99.90;;;;;;4990030;28;20080;-88
2021/03/15 03:58:58;;;;;;;7.27;3.13;;;1.90;99.90;;;;;;4975300;28;20023;-87
2021/03/15 04:01:35;;;;;;;8.83;3.10;;;1.90;99.90;;;;;;4988215;28;20019;-86
2021/03/15 04:04:01;;;;;;;8.73;3.77;;;2.00;99.90;;;;;;4996169;28;20440;-88
2021/03/15 04:06:30;;;;;;;8.77;3.50;;;2.00;99.90;;;;;;4998270;28;20029;-88
2021/03/15 04:09:16;;;;;;;6.43;2.77;;;2.00;99.90;;;;;;4996806;28;20025;-88
2021/03/15 04:11:48;;;;;;;11.10;2.80;;;2.10;99.90;;;;;;4992896;28;20049;-86
2021/03/15 04:14:18;;;;;;;6.70;2.97;;;2.10;99.90;;;;;;4991208;28;20026;-87
2021/03/15 04:16:46;;;;;;;7.60;3.00;;;2.10;99.90;;;;;;4981464;28;20147;-88
2021/03/15 04:19:13;;;;;;;10.10;3.10;;;2.10;99.90;;;;;;4993269;28;20037;-88
2021/03/15 04:21:40;;;;;;;7.40;3.17;;;2.10;99.90;;;;;;4997865;28;20396;-87
2021/03/15 04:24:07;;;;;;;6.07;2.70;;;2.20;99.90;;;;;;4973200;28;20033;-87
2021/03/15 04:26:34;;;;;;;7.90;3.00;;;2.20;99.90;;;;;;4984882;28;20104;-87
2021/03/15 04:29:01;;;;;;;6.10;2.87;;;2.20;99.90;;;;;;4995419;28;20022;-87
2021/03/15 04:31:27;;;;;;;8.57;3.50;;;2.20;99.90;;;;;;4983929;28;20488;-86
2021/03/15 04:33:55;;;;;;;10.00;3.00;;;2.20;99.90;;;;;;4998701;28;20022;-86
2021/03/15 04:36:21;;;;;;;9.30;3.17;;;2.20;99.90;;;;;;4974280;28;20484;-87
2021/03/15 04:38:48;;;;;;;6.63;3.10;;;2.20;99.90;;;;;;4981972;28;20040;-87
2021/03/15 04:41:16;;;;;;;8.40;3.43;;;2.20;99.90;;;;;;4972648;28;20030;-87
2021/03/15 04:43:45;;;;;;;9.93;3.33;;;2.10;99.90;;;;;;4983787;28;20033;-87
2021/03/15 04:46:11;;;;;;;8.70;3.60;;;2.10;99.90;;;;;;4978652;28;20149;-86
2021/03/15 04:48:39;;;;;;;8.67;3.33;;;2.10;99.90;;;;;;4976918;28;20478;-87
2021/03/15 04:51:06;;;;;;;8.97;3.33;;;2.10;99.90;;;;;;4991020;28;20018;-88
2021/03/15 04:53:34;;;;;;;9.10;3.77;;;2.10;99.90;;;;;;4993527;28;20041;-86
2021/03/15 04:56:08;;;;;;;12.43;4.50;;;2.10;99.90;;;;;;4985914;28;20042;-88
2021/03/15 04:58:36;;;;;;;9.40;3.83;;;2.10;99.90;;;;;;4979491;28;20205;-86
2021/03/15 05:01:03;;;;;;;7.97;3.63;;;2.20;99.90;;;;;;4997369;28;20037;-87
2021/03/15 05:03:29;;;;;;;10.23;3.83;;;2.10;99.90;;;;;;4982704;28;20028;-87
2021/03/15 05:05:56;;;;;;;9.17;3.60;;;2.20;99.90;;;;;;4997568;28;20046;-87
2021/03/15 05:08:32;;;;;;;10.37;3.70;;;2.20;99.90;;;;;;4986449;28;20030;-86
2021/03/15 05:11:01;;;;;;;8.57;3.30;;;2.20;99.90;;;;;;5006958;28;20027;-85
2021/03/15 05:13:27;;;;;;;8.33;3.53;;;2.20;99.90;;;;;;5013383;28;20053;-86
2021/03/15 05:15:54;;;;;;;10.37;3.50;;;2.20;99.90;;;;;;5009646;28;20026;-86
2021/03/15 05:18:24;;;;;;;8.03;3.40;;;2.20;99.90;;;;;;4986127;28;20072;-86
2021/03/15 05:20:50;;;;;;;7.67;3.20;;;2.20;99.90;;;;;;4995558;28;20026;-87
2021/03/15 05:23:16;;;;;;;10.07;3.47;;;2.20;99.90;;;;;;4995860;28;20106;-86
2021/03/15 05:25:45;;;;;;;9.43;3.53;;;2.20;99.90;;;;;;4990402;28;20034;-86
2021/03/15 05:28:12;;;;;;;9.90;3.30;;;2.20;99.90;;;;;;4993349;28;20030;-86
2021/03/15 05:30:39;;;;;;;8.27;2.80;;;2.20;99.90;;;;;;5012489;28;20027;-86
2021/03/15 05:33:12;;;;;;;7.47;3.83;;;2.30;99.90;;;;;;5004766;28;20052;-86
2021/03/15 05:35:38;;;;;;;;;;;2.20;99.90;;;;;;5010807;28;20042;-87
2021/03/15 05:38:04;;;;;;;7.10;3.13;;;2.30;99.90;;;;;;4995356;28;19937;-86
2021/03/15 05:40:31;;;;;;;10.27;3.03;;;2.30;99.90;;;;;;4980750;28;20027;-86
2021/03/15 05:43:20;;;;;;;10.83;2.77;;;2.30;99.90;;;;;;5005246;28;20054;-87
2021/03/15 05:46:34;;;;;;;7.30;2.77;;;2.30;99.90;;;;;;5009272;28;20113;-86
2021/03/15 05:49:12;;;;;;;9.23;2.70;;;2.40;99.90;;;;;;4995016;28;20026;-86
2021/03/15 05:52:16;;;;;;;6.37;2.40;;;2.40;99.90;;;;;;4997131;28;21001;-87
2021/03/15 05:55:06;;;;;;;9.67;2.53;;;2.40;99.90;;;;;;4991119;28;20046;-86
2021/03/15 05:58:01;;;;;;;8.83;3.20;;;2.40;99.90;;;;;;5005976;28;20042;-86
2021/03/15 06:01:13;;;;;;;8.03;2.80;;;2.40;99.90;;;;;;4996363;28;20048;-85
2021/03/15 06:04:17;;;;;;;5.87;2.07;;;2.40;99.90;;;;;;4998747;28;20030;-86
2021/03/15 06:06:47;;;;;;;7.03;2.80;;;2.30;99.90;;;;;;4995366;28;20049;-86
2021/03/15 06:09:18;;;;;;;8.17;3.20;;;2.30;99.90;;;;;;5008359;28;20038;-86
2021/03/15 06:11:50;;;;;;;8.13;2.70;;;2.30;99.90;;;;;;5014050;28;20018;-87
2021/03/15 06:14:16;;;;;;;;;;;2.30;99.90;;;;;;4989110;28;20018;-87
2021/03/15 06:16:43;;;;;;;9.13;3.00;;;2.30;99.90;;;;;;5003815;28;19920;-87
2021/03/15 06:19:09;;;;;;;6.70;2.70;;;2.40;99.90;;;;;;4990333;28;20018;-87
2021/03/15 06:21:38;;;;;;;8.43;3.30;;;2.40;99.90;;;;;;4987240;28;20026;-87
2021/03/15 06:24:04;;;;;;;11.83;3.20;;;2.50;99.90;;;;;;4981627;28;20038;-88
2021/03/15 06:26:31;;;;;;;5.43;2.87;;;2.50;99.90;;;;;;4975565;28;20031;-88
2021/03/15 06:29:01;;;;;;;7.30;2.77;;;2.50;99.90;;;;;;4981863;28;20023;-87
2021/03/15 06:31:30;;;;;;;6.37;3.17;;;2.50;99.90;;;;;;4975763;28;20030;-87
2021/03/15 06:33:57;;;;;;;6.83;2.90;;;2.50;99.90;;;;;;4967979;28;20025;-89
2021/03/15 06:36:26;;;;;;;12.13;3.40;;;2.50;99.90;;;;;;4973758;28;20037;-89
2021/03/15 06:38:53;;;;;;;8.67;3.10;;;2.50;99.90;;;;;;4989355;28;20037;-88
2021/03/15 06:41:22;;;;;;;7.93;3.30;;;2.50;99.90;;;;;;4971914;28;20029;-88
2021/03/15 06:43:50;;;;;;;4.87;2.43;;;2.50;99.90;;;;;;4970979;28;20094;-88
2021/03/15 06:46:16;;;;;;;6.30;2.33;;;2.40;99.90;;;;;;4978761;28;20391;-89
2021/03/15 06:48:43;;;;;;;5.03;2.80;;;2.40;99.90;;;;;;4979220;28;20046;-88
2021/03/15 06:51:09;;;;;;;6.43;3.10;;;2.40;99.90;;;;;;4977713;28;20038;-89
2021/03/15 06:53:39;;;;;;;7.07;2.90;;;2.50;99.90;;;;;;4983324;28;20037;-88
2021/03/15 06:56:13;;;;;;;8.27;3.33;;;2.60;99.90;;;;;;4978727;28;20428;-88
2021/03/15 06:58:54;;;;;;;6.00;2.77;;;2.70;99.90;;;;;;4986393;28;20027;-89
2021/03/15 07:01:23;;;;;;;5.73;2.73;;;2.80;99.90;;;;;;4975117;28;20027;-88
2021/03/15 07:04:06;;;;;;;4.77;2.47;;;2.80;99.90;;;;;;4977634;28;20079;-90
2021/03/15 07:07:09;;;;;;;4.83;2.40;;;2.80;99.90;;;;;;4971291;28;20033;-89
2021/03/15 07:09:34;;;;;;;7.20;2.22;;;2.90;99.90;;;;;;4963325;28;20541;-88
2021/03/15 07:12:01;;;;;;;3.43;1.97;;;2.90;99.90;;;;;;4974746;28;20057;-89
2021/03/15 07:15:06;;;;;;;4.20;1.80;;;2.90;99.90;;;;;;4977020;28;20035;-92
2021/03/15 07:17:32;;;;;;;6.70;1.93;;;2.90;99.90;;;;;;4983000;28;20054;-91
2021/03/15 07:19:59;;;;;;;3.97;1.50;;;2.90;99.90;;;;;;4970452;28;20044;-88
2021/03/15 07:22:28;;;;;;;4.23;2.00;;;2.90;99.90;;;;;;4977103;28;20022;-90
2021/03/15 07:25:16;;;;;;;4.47;2.00;;;3.00;99.90;;;;;;4975314;28;20031;-92
2021/03/15 07:27:44;;;;;;;4.00;1.80;;;3.00;99.90;;;;;;4971856;28;20019;-88
2021/03/15 07:30:38;;;;;;;3.87;1.50;;;3.00;99.90;;;;;;4991037;28;20019;-88
2021/03/15 07:33:20;;;;;;;4.37;1.80;;;2.90;99.90;;;;;;4980327;28;20022;-87
2021/03/15 07:35:50;;;;;;;5.65;1.90;;;2.90;99.90;;;;;;4972242;28;20034;-88
2021/03/15 07:38:15;;;;;;;3.63;1.53;;;2.90;99.90;;;;;;4970703;28;20031;-87
2021/03/15 07:40:45;;;;;;;5.00;1.70;;;2.90;99.90;;;;;;4986716;28;20034;-88
2021/03/15 07:43:25;;;;;;;3.57;1.37;;;2.80;99.90;;;;;;4985129;28;20031;-88
2021/03/15 07:45:51;;;;;;;3.50;1.37;;;2.60;99.90;;;;;;4990221;28;20037;-88
2021/03/15 07:48:19;;;;;;;3.40;1.30;;;2.60;99.90;;;;;;4983082;28;20148;-88
2021/03/15 07:51:02;;;;;;;3.27;1.50;;;2.50;99.90;;;;;;4986931;28;20039;-88
2021/03/15 07:53:45;;;;;;;2.77;1.30;;;2.30;99.90;;;;;;5000481;28;20030;-87
2021/03/15 07:56:18;;;;;;;3.60;1.50;;;2.20;99.90;;;;;;4988143;28;20026;-87
2021/03/15 07:58:44;;;;;;;4.45;1.58;;;2.20;99.90;;;;;;5002977;28;20030;-87
2021/03/15 08:01:10;;;;;;;6.40;2.00;;;2.20;99.90;;;;;;4987880;28;20023;-87
2021/03/15 08:03:40;;;;;;;6.37;1.83;;;2.20;99.90;;;;;;5007874;28;20040;-87
2021/03/15 08:06:10;;;;;;;4.03;1.60;;;2.30;99.90;;;;;;4996876;28;20577;-87
2021/03/15 08:08:37;;;;;;;4.07;1.80;;;2.20;99.90;;;;;;5001208;28;20049;-87
2021/03/15 08:11:05;;;;;;;5.93;2.10;;;2.30;99.90;;;;;;4993535;28;20080;-87
2021/03/15 08:13:38;;;;;;;3.93;1.77;;;2.30;99.90;;;;;;4997590;28;20033;-88
2021/03/15 08:16:05;;;;;;;4.53;1.90;;;2.40;99.90;;;;;;4991126;28;20022;-88
2021/03/15 08:18:32;;;;;;;5.50;1.93;;;2.50;99.90;;;;;;4989947;28;20034;-87
2021/03/15 08:21:05;;;;;;;3.67;1.90;;;2.60;99.90;;;;;;5001668;28;20122;-88
2021/03/15 08:23:34;;;;;;;5.23;1.83;;;2.70;99.90;;;;;;4984166;28;20125;-87
2021/03/15 08:26:06;;;;;;;7.73;1.97;;;2.80;99.90;;;;;;4979567;28;20090;-89
2021/03/15 08:28:33;;;;;;;3.30;1.73;;;2.90;99.90;;;;;;4982913;28;20492;-88
2021/03/15 08:31:16;;;;;;;3.20;1.60;;;3.00;99.90;;;;;;5003746;28;20110;-88
2021/03/15 08:33:44;;;;;;;3.77;1.70;;;3.00;99.90;;;;;;4986994;28;20118;-88
2021/03/15 08:36:11;;;;;;;3.03;1.57;;;3.10;99.90;;;;;;4980631;28;20072;-89
2021/03/15 08:38:39;;;;;;;3.63;1.60;;;3.20;99.90;;;;;;4979367;28;20496;-90
2021/03/15 08:41:10;;;;;;;3.77;1.60;;;3.40;99.90;;;;;;4988235;28;20025;-88
2021/03/15 08:43:37;;;;;;;3.37;1.40;;;3.60;99.90;;;;;;4969131;28;20314;-90
2021/03/15 08:46:17;;;;;;;2.63;1.13;;;3.70;99.90;;;;;;4986562;28;20129;-89
2021/03/15 08:48:46;;;;;;;2.20;0.90;;;3.80;99.90;;;;;;4968104;28;20026;-88
2021/03/15 08:51:35;;;;;;;3.43;0.90;;;3.70;99.90;;;;;;4987705;28;20026;-89
2021/03/15 08:54:02;;;;;;;2.83;1.00;;;3.80;99.90;;;;;;4991796;28;20441;-88
2021/03/15 08:56:27;;;;;;;2.13;0.80;;;3.70;99.90;;;;;;4975952;28;20666;-88
2021/03/15 08:59:01;;;;;;;3.57;0.70;;;3.70;99.90;;;;;;4972801;28;20029;-89
2021/03/15 09:01:46;;;;;;;2.50;0.77;;;3.70;99.90;;;;;;4978489;28;20390;-88
2021/03/15 09:04:45;;;;;;;1.70;0.53;;;3.80;99.90;;;;;;4977003;28;20444;-89
2021/03/15 09:07:40;;;;;;;1.63;0.50;;;3.70;99.90;;;;;;4932276;28;20065;-88
2021/03/15 09:10:24;;;;;;;1.73;0.60;;;3.70;99.90;;;;;;4978007;28;20152;-88
2021/03/15 09:13:23;;;;;;;1.70;0.60;;;3.60;99.90;;;;;;4977100;28;20033;-89
2021/03/15 09:15:57;;;;;;;2.47;0.60;;;3.70;99.90;;;;;;4976973;28;20019;-89
2021/03/15 09:18:55;;;;;;;2.07;0.60;;;3.80;99.90;;;;;;4992144;28;20072;-88
2021/03/15 09:21:25;;;;;;;1.93;0.70;;;3.80;99.90;;;;;;4969343;28;20058;-89
2021/03/15 09:23:55;;;;;;;2.10;0.57;;;3.80;99.90;;;;;;4975729;28;20046;-89
2021/03/15 09:26:24;;;;;;;1.10;0.50;;;3.80;99.90;;;;;;4976121;28;20031;-89
2021/03/15 09:28:53;;;;;;;3.20;0.60;;;3.90;99.90;;;;;;4976325;28;20026;-88
2021/03/15 09:31:19;;;;;;;1.63;0.50;;;3.90;99.90;;;;;;4968087;28;20022;-90
2021/03/15 09:33:45;;;;;;;2.80;0.50;;;3.90;99.90;;;;;;4993776;28;20116;-87
2021/03/15 09:36:11;;;;;;;1.37;0.40;;;4.00;99.90;;;;;;4975288;28;20029;-88
2021/03/15 09:38:38;;;;;;;3.73;0.53;;;4.00;99.90;;;;;;4975578;28;20026;-88
2021/03/15 09:41:08;;;;;;;1.43;0.50;;;4.10;99.90;;;;;;4994898;28;20045;-88
2021/03/15 09:43:36;;;;;;;2.67;0.70;;;4.20;99.90;;;;;;4975794;28;20061;-89
2021/03/15 09:46:04;;;;;;;2.80;0.43;;;4.30;99.90;;;;;;4972550;28;20023;-88
2021/03/15 09:48:32;;;;;;;1.33;0.47;;;4.40;99.90;;;;;;4977540;28;20034;-88
2021/03/15 09:51:05;;;;;;;1.67;0.60;;;4.50;99.90;;;;;;4982513;28;20030;-89
2021/03/15 09:53:30;;;;;;;1.80;0.90;;;4.60;99.90;;;;;;4975814;28;20032;-89
2021/03/15 09:56:08;;;;;;;1.80;0.77;;;4.70;99.90;;;;;;4979089;28;20022;-89
2021/03/15 09:58:33;;;;;;;2.93;0.90;;;4.80;99.90;;;;;;4975840;28;20061;-89
2021/03/15 10:00:59;;;;;;;4.07;1.07;;;4.80;99.90;;;;;;4975150;28;20078;-89
2021/03/15 10:03:26;;;;;;;1.40;0.63;;;4.80;99.90;;;;;;4981771;28;20042;-89
2021/03/15 10:05:54;;;;;;;4.80;0.90;;;4.80;99.90;;;;;;4976286;28;20068;-89
2021/03/15 10:08:19;;;;;;;2.07;1.07;;;4.80;99.90;;;;;;4970600;28;20027;-89
2021/03/15 10:10:45;;;;;;;3.33;1.30;;;4.80;99.90;;;;;;4975902;28;20026;-88
2021/03/15 10:13:11;;;;;;;2.17;1.00;;;4.80;99.90;;;;;;4974897;28;20388;-89
2021/03/15 10:15:37;;;;;;;2.30;0.93;;;4.80;99.90;;;;;;4975594;28;20412;-88
2021/03/15 10:18:03;;;;;;;3.70;1.07;;;4.90;99.90;;;;;;4972971;28;20035;-89
2021/03/15 10:20:34;;;;;;;2.40;1.10;;;4.90;99.90;;;;;;4978191;28;20027;-89
2021/03/15 10:23:19;;;;;;;3.47;1.47;;;5.00;99.90;;;;;;4974999;28;20038;-88
2021/03/15 10:25:58;;;;;;;4.83;1.40;;;5.00;99.90;;;;;;4976806;28;20093;-89
2021/03/15 10:28:25;;;;;;;2.57;1.20;;;5.00;99.90;;;;;;4985264;28;20034;-89
2021/03/15 10:30:51;;;;;;;4.33;1.37;;;5.00;99.90;;;;;;4966733;28;20030;-89
2021/03/15 10:33:20;;;;;;;5.13;1.40;;;5.10;99.90;;;;;;5002981;28;20057;-89
2021/03/15 10:35:49;;;;;;;3.37;1.50;;;5.10;99.90;;;;;;4975622;28;20022;-89
2021/03/15 10:38:18;;;;;;;3.27;1.60;;;5.00;99.90;;;;;;4992963;28;20050;-89
2021/03/15 10:40:45;;;;;;;3.20;1.50;;;5.00;99.90;;;;;;4975270;28;20022;-91
2021/03/15 10:43:22;;;;;;;3.07;1.50;;;5.20;99.90;;;;;;4975599;28;20026;-89
2021/03/15 10:45:52;;;;;;;2.70;1.17;;;5.10;99.90;;;;;;4975913;28;20030;-90
2021/03/15 10:48:24;;;;;;;3.40;1.30;;;5.20;99.90;;;;;;4980978;28;20038;-89
2021/03/15 10:50:55;;;;;;;4.47;1.40;;;5.20;99.90;;;;;;4992875;28;20044;-88
2021/03/15 10:53:22;;;;;;;2.73;1.17;;;5.10;99.90;;;;;;4976028;28;20089;-89
2021/03/15 10:55:49;;;;;;;3.67;1.30;;;5.10;99.90;;;;;;4992540;28;20129;-89
2021/03/15 10:58:17;;;;;;;4.63;1.17;;;5.10;99.90;;;;;;4976375;28;20050;-88
2021/03/15 11:00:59;;;;;;;2.53;1.10;;;5.10;99.90;;;;;;4976352;28;20019;-89
2021/03/15 11:03:28;;;;;;;2.75;1.40;;;5.20;99.90;;;;;;4975918;28;20022;-90
2021/03/15 11:06:12;;;;;;;3.17;1.47;;;5.40;99.90;;;;;;4976859;28;20384;-89
2021/03/15 11:08:38;;;;;;;2.93;1.00;;;5.60;99.90;;;;;;4975988;28;20088;-89
2021/03/15 11:11:14;;;;;;;3.10;1.10;;;5.70;99.90;;;;;;5000240;23;20042;-84
2021/03/15 11:13:48;;;;;;;2.60;1.30;;;5.90;99.90;;;;;;4968086;28;20042;-85
2021/03/15 11:16:27;;;;;;;3.20;1.27;;;6.00;99.90;;;;;;4971900;28;20038;-85
2021/03/15 11:19:05;;;;;;;1.63;0.90;;;6.00;99.90;;;;;;4972748;28;20703;-86
2021/03/15 11:21:34;;;;;;;3.50;1.07;;;6.00;99.90;;;;;;4964978;28;20027;-86
2021/03/15 11:24:00;;;;;;;2.17;1.07;;;5.90;99.90;;;;;;4953153;28;20031;-85
2021/03/15 11:26:28;;;;;;;2.40;0.63;;;6.00;99.90;;;;;;4954603;28;20085;-86
2021/03/15 11:28:57;;;;;;;2.33;1.00;;;6.00;99.90;;;;;;4955512;28;20023;-87
2021/03/15 11:31:29;;;;;;;2.53;0.90;;;6.10;99.90;;;;;;4952059;28;20023;-87
2021/03/15 11:34:14;;;;;;;;;;;;;;;;;;;;;
2021/03/15 11:36:46;;;;;;;2.43;1.13;;;6.30;99.90;;;;;;4960821;28;20565;-86
2021/03/15 11:39:12;;;;;;;2.73;1.27;;;6.40;99.90;;;;;;4952809;28;20081;-86
2021/03/15 11:41:39;;;;;;;2.20;0.90;;;6.50;99.90;;;;;;4952908;28;20031;-86
2021/03/15 11:44:05;;;;;;;2.00;0.80;;;6.40;99.90;;;;;;4953590;28;20026;-86
2021/03/15 11:46:33;;;;;;;3.00;1.20;;;6.60;99.90;;;;;;4953634;28;20110;-86
2021/03/15 11:48:59;;;;;;;1.57;0.90;;;6.80;99.90;;;;;;4956755;28;20630;-86
2021/03/15 11:51:25;;;;;;;2.70;0.93;;;6.90;99.90;;;;;;4952236;28;20118;-86
2021/03/15 11:53:50;;;;;;;2.30;1.00;;;6.90;99.90;;;;;;4952434;28;20066;-87
2021/03/15 11:56:16;;;;;;;3.57;1.30;;;6.80;99.90;;;;;;4951155;29;20055;-87
2021/03/15 11:58:42;;;;;;;1.47;0.73;;;6.80;99.90;;;;;;4955716;28;20078;-87
2021/03/15 12:01:09;;;;;;;1.83;1.00;;;6.70;99.90;;;;;;4955837;28;20041;-86
2021/03/15 12:03:35;;;;;;;2.53;0.97;;;6.50;99.90;;;;;;4954621;28;20102;-86
2021/03/15 12:06:02;;;;;;;2.30;1.00;;;6.50;99.90;;;;;;4951971;28;20042;-86
2021/03/15 12:08:29;;;;;;;3.50;1.40;;;6.40;99.90;;;;;;4953144;28;20063;-86
2021/03/15 12:10:55;;;;;;;1.97;1.13;;;6.40;99.90;;;;;;4951234;28;20034;-87
2021/03/15 12:13:21;;;;;;;2.70;1.30;;;6.20;99.90;;;;;;4953206;28;20027;-86
2021/03/15 12:15:48;;;;;;;2.97;1.00;;;6.10;99.90;;;;;;4956335;28;20512;-86
2021/03/15 12:18:14;;;;;;;2.10;1.17;;;6.10;99.90;;;;;;4971820;28;20032;-87
2021/03/15 12:20:41;;;;;;;2.57;1.30;;;6.20;99.90;;;;;;4956879;28;20027;-87
2021/03/15 12:23:07;;;;;;;2.90;1.60;;;6.10;99.90;;;;;;4954329;28;20035;-86
2021/03/15 12:25:38;;;;;;;2.37;1.17;;;6.30;99.90;;;;;;4955427;28;20480;-87
2021/03/15 12:28:05;;;;;;;2.87;1.40;;;6.30;99.90;;;;;;4959250;28;20059;-87
2021/03/15 12:30:31;;;;;;;3.40;1.50;;;6.40;99.90;;;;;;4961334;28;20408;-87
2021/03/15 12:32:57;;;;;;;2.70;1.40;;;6.40;99.90;;;;;;4958796;28;20054;-87
2021/03/15 12:35:25;;;;;;;2.73;1.70;;;6.30;99.90;;;;;;4957546;28;20035;-87
2021/03/15 12:37:51;;;;;;;3.00;1.60;;;6.30;99.90;;;;;;4954136;29;20499;-87
2021/03/15 12:40:18;;;;;;;2.87;1.50;;;6.30;99.90;;;;;;4954395;28;20047;-87
2021/03/15 12:42:44;;;;;;;3.80;1.60;;;6.30;99.90;;;;;;4953541;28;20032;-87
2021/03/15 12:45:10;;;;;;;3.00;1.70;;;6.40;99.90;;;;;;4954169;28;20051;-87
2021/03/15 12:47:36;;;;;;;2.80;1.60;;;6.40;99.90;;;;;;4951946;28;20043;-85
2021/03/15 12:50:04;;;;;;;2.80;1.40;;;6.50;99.90;;;;;;4954414;29;20030;-86
2021/03/15 12:52:29;;;;;;;2.87;1.43;;;6.60;99.90;;;;;;4954864;29;20074;-85
2021/03/15 12:54:56;;;;;;;3.13;1.17;;;6.70;99.90;;;;;;4965118;28;20039;-85
2021/03/15 12:57:22;;;;;;;2.30;1.30;;;6.90;99.90;;;;;;4960586;28;20023;-85
2021/03/15 12:59:49;;;;;;;2.73;1.70;;;7.00;99.90;;;;;;4960691;28;20034;-85
2021/03/15 13:02:15;;;;;;;2.73;1.50;;;7.30;99.90;;;;;;4954947;28;20027;-85
2021/03/15 13:04:41;;;;;;;2.87;1.60;;;7.70;99.90;;;;;;4955274;29;20455;-85
2021/03/15 13:07:06;;;;;;;2.50;1.33;;;8.30;99.90;;;;;;4956357;29;20115;-85
2021/03/15 13:09:32;;;;;;;2.43;1.20;;;8.40;99.90;;;;;;4955831;28;20058;-85
2021/03/15 13:11:58;;;;;;;4.97;1.27;;;8.40;99.90;;;;;;4958527;28;20445;-85
2021/03/15 13:14:24;;;;;;;2.33;1.30;;;8.40;99.90;;;;;;4961365;28;20027;-85
2021/03/15 13:16:50;;;;;;;2.77;1.40;;;8.20;99.90;;;;;;4942093;28;20027;-84